Segredos Do Mar — CUEA4 — position and weather

sailwx.info

Track history (hours):
 
Tides and Currents Weather Stations Pressure Air Temp Water Temp Dewpoint Dewpoint Depression Visibility Wind Speed Wind Dir Waves Ship Positions

Segredos Do Mar

Last reported at 2017-Oct-17 09:30 UTC. Time now 2017-Oct-17 10:00 UTC.
Position N 38°26' W 009°02'.

Length 22 m.

MMSI: 263500212.

Date/timePositionNaut miles runAvg speedWind from/ knotsBaromVisibWave heightAir tempDewpointWater temp
2017-Oct-17 09:30N 38°26' W 009°02'4 7.7
2017-Oct-17 09:00N 38°26' W 009°07'0 0.1
2017-Oct-17 08:30N 38°26' W 009°07'0 0.0
2017-Oct-17 08:00N 38°26' W 009°07'3 5.8
2017-Oct-17 07:30N 38°26' W 009°03'4 7.2
2017-Oct-17 07:00N 38°25' W 008°59'3 6.9
2017-Oct-17 06:30N 38°25' W 008°54'0 0.2
2017-Oct-17 05:59N 38°25' W 008°54'0 0.4
2017-Oct-17 05:30N 38°25' W 008°54'1 1.6
2017-Oct-17 04:59N 38°25' W 008°55'1 1.6
2017-Oct-17 04:28N 38°25' W 008°54'2 4.6
2017-Oct-17 03:57N 38°24' W 008°51'0 0.2
2017-Oct-17 03:30N 38°24' W 008°51'0 0.1
2017-Oct-17 03:00N 38°23' W 008°51'0 0.1
2017-Oct-17 02:30N 38°23' W 008°51'2 4.0
2017-Oct-17 01:59N 38°25' W 008°53'0 0.4
2017-Oct-17 01:29N 38°25' W 008°53'0 0.1
2017-Oct-17 01:00N 38°25' W 008°53'0 0.6
2017-Oct-17 00:13N 38°25' W 008°52'0 0.0
2017-Oct-17 00:00N 38°25' W 008°52'0 0.0
2017-Oct-16 22:26N 38°25' W 008°52'0 0.0
2017-Oct-16 21:37N 38°25' W 008°52'0 0.0
2017-Oct-16 21:12N 38°25' W 008°52'0 1.1
2017-Oct-16 20:55N 38°25' W 008°53'2 5.5
2017-Oct-16 20:30N 38°23' W 008°51'2 2.5
2017-Oct-16 19:53N 38°22' W 008°51'1 2.2
2017-Oct-16 19:17N 38°23' W 008°51'2 5.7
2017-Oct-16 19:00N 38°24' W 008°53'3 7.0
2017-Oct-16 18:30N 38°26' W 008°57'3 6.0
2017-Oct-16 18:00N 38°29' W 008°56'3 5.8
2017-Oct-16 17:29N 38°31' W 008°54'0 0.0
2017-Oct-16 16:56N 38°31' W 008°54'0 0.0
2017-Oct-16 05:42N 38°31' W 008°54'0 0.0
2017-Oct-16 05:30N 38°31' W 008°54'2 3.1
2017-Oct-16 05:00N 38°30' W 008°55'3 6.1
2017-Oct-16 04:31N 38°28' W 008°58'2 4.3
2017-Oct-16 04:01N 38°26' W 008°56'3 5.9
2017-Oct-16 03:31N 38°24' W 008°53'2 3.4
2017-Oct-16 02:58N 38°24' W 008°51'0 0.2
2017-Oct-16 02:30N 38°24' W 008°51'0 0.2
2017-Oct-16 02:01N 38°24' W 008°51'0 0.2
2017-Oct-16 01:29N 38°24' W 008°51'0 0.1
2017-Oct-16 01:01N 38°24' W 008°50'1 1.2
2017-Oct-16 00:28N 38°23' W 008°50'1 1.8
2017-Oct-16 00:01N 38°22' W 008°50'1 2.1
2017-Oct-15 23:30N 38°23' W 008°51'3 6.2
2017-Oct-15 23:00N 38°25' W 008°54'3 5.2
2017-Oct-15 22:31N 38°26' W 008°57'2 4.8
2017-Oct-15 22:00N 38°29' W 008°57'3 5.9
2017-Oct-15 21:30N 38°31' W 008°54'  
2017-Oct-13 16:05N 38°31' W 008°54'0 0.0
2017-Oct-13 15:48N 38°31' W 008°54'0 0.0
2017-Oct-13 15:27N 38°31' W 008°54'0 0.1
2017-Oct-13 13:01N 38°31' W 008°54'0 7.2
2017-Oct-13 13:00N 38°31' W 008°54'3 6.4
2017-Oct-13 12:30N 38°29' W 008°57'3 6.2
2017-Oct-13 12:01N 38°27' W 008°60'4 7.2
2017-Oct-13 11:30N 38°26' W 009°04'2 3.8
2017-Oct-13 11:00N 38°26' W 009°07'0 0.0
2017-Oct-13 10:30N 38°26' W 009°07'0 0.0
2017-Oct-13 09:57N 38°26' W 009°07'0 0.0
2017-Oct-13 09:30N 38°26' W 009°07'0 0.0
2017-Oct-13 09:00N 38°26' W 009°07'0 0.0
2017-Oct-13 08:29N 38°26' W 009°07'0 0.0
2017-Oct-13 07:58N 38°26' W 009°07'0 0.0
2017-Oct-13 07:30N 38°26' W 009°07'0 0.0
2017-Oct-13 06:58N 38°26' W 009°07'0 0.0
2017-Oct-13 06:30N 38°26' W 009°07'3 5.2
2017-Oct-13 06:01N 38°25' W 009°04'4 8.0
2017-Oct-13 05:31N 38°23' W 008°59'4 7.7
2017-Oct-13 05:00N 38°21' W 008°55'4 7.8
2017-Oct-13 04:30N 38°18' W 008°52'4 7.6
2017-Oct-13 04:01N 38°15' W 008°49'1 1.3
2017-Oct-13 03:30N 38°15' W 008°48'0 0.2
2017-Oct-13 02:53N 38°15' W 008°48'0 0.3
2017-Oct-13 02:30N 38°15' W 008°48'0 0.3
2017-Oct-13 02:01N 38°15' W 008°48'0 0.2
2017-Oct-13 01:29N 38°15' W 008°48'0 0.2
2017-Oct-13 01:01N 38°15' W 008°48'1 1.3
2017-Oct-13 00:30N 38°16' W 008°48'1 1.6
2017-Oct-13 00:00N 38°16' W 008°49'10 6.1
2017-Oct-12 22:17N 38°25' W 008°56'2 6.9
2017-Oct-12 22:01N 38°26' W 008°58'6 1.5
2017-Oct-12 18:06N 38°31' W 008°54'0 0.0
2017-Oct-12 17:38N 38°31' W 008°54'0 0.0
2017-Oct-12 17:30N 38°31' W 008°54'0 0.0
2017-Oct-12 17:00N 38°31' W 008°54'0 0.0
2017-Oct-12 16:30N 38°31' W 008°54'0 0.0
2017-Oct-12 16:01N 38°31' W 008°54'0 0.0
2017-Oct-12 15:31N 38°31' W 008°54'0 0.0
2017-Oct-12 15:00N 38°31' W 008°54'3 1.2
2017-Oct-12 12:48N 38°29' W 008°56'2 6.8
2017-Oct-12 12:30N 38°28' W 008°58'4 7.2
2017-Oct-12 12:00N 38°26' W 009°02'4 7.3
2017-Oct-12 11:31N 38°26' W 009°07'0 0.2
2017-Oct-12 10:59N 38°26' W 009°07'0 0.0
2017-Oct-12 10:27N 38°26' W 009°07'0 0.0
2017-Oct-12 09:52N 38°26' W 009°07'0 0.0
2017-Oct-12 09:26N 38°26' W 009°07'0 0.0
2017-Oct-12 08:52N 38°26' W 009°07'3 6.9
2017-Oct-12 08:30N 38°25' W 009°04'4 8.1
2017-Oct-12 08:00N 38°23' W 008°60'4 8.3
2017-Oct-12 07:31N 38°21' W 008°55'4 8.2
2017-Oct-12 07:00N 38°18' W 008°52'4 8.3
2017-Oct-12 06:31N 38°14' W 008°50'2 5.0
2017-Oct-12 06:00N 38°12' W 008°49'0 0.4
2017-Oct-12 05:30N 38°11' W 008°49'0 0.2
2017-Oct-12 05:00N 38°11' W 008°49'0 0.0
2017-Oct-12 04:30N 38°11' W 008°49'0 0.2
2017-Oct-12 04:00N 38°11' W 008°49'1 2.9
2017-Oct-12 03:31N 38°13' W 008°48'2 4.4
2017-Oct-12 03:01N 38°15' W 008°48'5 6.2
2017-Oct-12 02:15N 38°19' W 008°50'1 3.1
2017-Oct-12 02:00N 38°20' W 008°50'0 0.0
2017-Oct-11 22:39N 38°20' W 008°50'0 1.1
2017-Oct-11 22:30N 38°20' W 008°50'2 4.5
2017-Oct-11 22:00N 38°18' W 008°49'0 0.7
2017-Oct-11 21:30N 38°17' W 008°49'1 2.6
2017-Oct-11 21:00N 38°19' W 008°50'0 0.3
2017-Oct-11 20:30N 38°19' W 008°50'0 0.4
2017-Oct-11 20:00N 38°18' W 008°50'0 0.3
2017-Oct-11 19:30N 38°18' W 008°50'0 0.3
2017-Oct-11 19:00N 38°18' W 008°50'1 1.9
2017-Oct-11 18:30N 38°19' W 008°51'7 6.1
2017-Oct-11 17:23N 38°24' W 008°55'3 7.1
2017-Oct-11 17:00N 38°27' W 008°57'5 0.1
2017-Oct-10 02:42N 38°31' W 008°54'1 3.1
2017-Oct-10 02:30N 38°31' W 008°54'4 7.9
2017-Oct-10 02:00N 38°27' W 008°57'1 2.0
2017-Oct-10 01:30N 38°26' W 008°56'0 0.0
2017-Oct-10 01:00N 38°26' W 008°56'0 0.3
2017-Oct-10 00:30N 38°26' W 008°56'0 0.4
2017-Oct-10 00:00N 38°26' W 008°56'0 0.3
2017-Oct-09 23:30N 38°26' W 008°56'0 0.3
2017-Oct-09 23:00N 38°26' W 008°56'0 0.3
2017-Oct-09 22:30N 38°26' W 008°56'0 0.5
2017-Oct-09 22:00N 38°26' W 008°55'1 1.3
2017-Oct-09 21:30N 38°26' W 008°54'1 3.0
2017-Oct-09 21:00N 38°26' W 008°56'2 4.9
2017-Oct-09 20:30N 38°29' W 008°56'3 6.4
2017-Oct-09 20:00N 38°31' W 008°54'0 0.0
2017-Oct-09 11:27N 38°31' W 008°54'1 3.0
2017-Oct-09 11:00N 38°30' W 008°55'3 7.0
2017-Oct-09 10:30N 38°27' W 008°58'4 7.2
2017-Oct-09 10:00N 38°26' W 009°02'4 7.6
2017-Oct-09 09:30N 38°25' W 009°07'4 7.3
2017-Oct-09 09:00N 38°24' W 009°11'3 5.7
2017-Oct-09 08:30N 38°26' W 009°14'3 5.9
2017-Oct-09 08:00N 38°29' W 009°14'0 0.1
2017-Oct-09 07:30N 38°29' W 009°14'0 0.2
2017-Oct-09 07:00N 38°29' W 009°14'2 3.7
2017-Oct-09 06:30N 38°31' W 009°14'2 4.1
2017-Oct-09 06:00N 38°33' W 009°14'0 0.3
2017-Oct-09 05:30N 38°33' W 009°13'0 0.2
2017-Oct-09 05:00N 38°33' W 009°13'0 0.1
2017-Oct-09 04:30N 38°33' W 009°14'0 0.1
2017-Oct-09 04:00N 38°33' W 009°14'0 0.1
2017-Oct-09 03:30N 38°33' W 009°14'0 0.0
2017-Oct-09 03:00N 38°33' W 009°14'0 0.0
2017-Oct-09 02:30N 38°33' W 009°14'0 0.0
2017-Oct-09 02:00N 38°33' W 009°14'0 0.0
2017-Oct-09 01:30N 38°33' W 009°14'0 0.1
2017-Oct-09 01:00N 38°33' W 009°14'2 3.8
2017-Oct-09 00:30N 38°31' W 009°12'2 4.4
2017-Oct-09 00:00N 38°29' W 009°13'3 6.5
2017-Oct-08 23:30N 38°26' W 009°14'3 6.2
2017-Oct-08 23:00N 38°24' W 009°11'4 8.2
2017-Oct-08 22:30N 38°25' W 009°06'4 8.2
2017-Oct-08 22:00N 38°26' W 009°01'4 8.2
2017-Oct-08 21:30N 38°26' W 008°56'2 4.5
2017-Oct-08 21:00N 38°28' W 008°58'5 9.3
2017-Oct-08 20:30N 38°31' W 008°54'0 0.3
2017-Oct-08 20:00N 38°31' W 008°54'  
Track history (hours):
 
Tides and Currents Weather Stations Pressure Air Temp Water Temp Dewpoint Dewpoint Depression Visibility Wind Speed Wind Dir Waves Ship Positions

Segredos Do Mar

Last reported at 2017-Oct-17 09:30 UTC. Time now 2017-Oct-17 10:00 UTC.
Position N 38°26' W 009°02'.

Length 22 m.

MMSI: 263500212.

Date/timePositionNaut miles runAvg speedWind from/ knotsBaromVisibWave heightAir tempDewpointWater temp
2017-Oct-17 09:30N 38°26' W 009°02'4 7.7
2017-Oct-17 09:00N 38°26' W 009°07'0 0.1
2017-Oct-17 08:30N 38°26' W 009°07'0 0.0
2017-Oct-17 08:00N 38°26' W 009°07'3 5.8
2017-Oct-17 07:30N 38°26' W 009°03'4 7.2
2017-Oct-17 07:00N 38°25' W 008°59'3 6.9
2017-Oct-17 06:30N 38°25' W 008°54'0 0.2
2017-Oct-17 05:59N 38°25' W 008°54'0 0.4
2017-Oct-17 05:30N 38°25' W 008°54'1 1.6
2017-Oct-17 04:59N 38°25' W 008°55'1 1.6
2017-Oct-17 04:28N 38°25' W 008°54'2 4.6
2017-Oct-17 03:57N 38°24' W 008°51'0 0.2
2017-Oct-17 03:30N 38°24' W 008°51'0 0.1
2017-Oct-17 03:00N 38°23' W 008°51'0 0.1
2017-Oct-17 02:30N 38°23' W 008°51'2 4.0
2017-Oct-17 01:59N 38°25' W 008°53'0 0.4
2017-Oct-17 01:29N 38°25' W 008°53'0 0.1
2017-Oct-17 01:00N 38°25' W 008°53'0 0.6
2017-Oct-17 00:13N 38°25' W 008°52'0 0.0
2017-Oct-17 00:00N 38°25' W 008°52'0 0.0
2017-Oct-16 22:26N 38°25' W 008°52'0 0.0
2017-Oct-16 21:37N 38°25' W 008°52'0 0.0
2017-Oct-16 21:12N 38°25' W 008°52'0 1.1
2017-Oct-16 20:55N 38°25' W 008°53'2 5.5
2017-Oct-16 20:30N 38°23' W 008°51'2 2.5
2017-Oct-16 19:53N 38°22' W 008°51'1 2.2
2017-Oct-16 19:17N 38°23' W 008°51'2 5.7
2017-Oct-16 19:00N 38°24' W 008°53'3 7.0
2017-Oct-16 18:30N 38°26' W 008°57'3 6.0
2017-Oct-16 18:00N 38°29' W 008°56'3 5.8
2017-Oct-16 17:29N 38°31' W 008°54'0 0.0
2017-Oct-16 16:56N 38°31' W 008°54'0 0.0
2017-Oct-16 05:42N 38°31' W 008°54'0 0.0
2017-Oct-16 05:30N 38°31' W 008°54'2 3.1
2017-Oct-16 05:00N 38°30' W 008°55'3 6.1
2017-Oct-16 04:31N 38°28' W 008°58'2 4.3
2017-Oct-16 04:01N 38°26' W 008°56'3 5.9
2017-Oct-16 03:31N 38°24' W 008°53'2 3.4
2017-Oct-16 02:58N 38°24' W 008°51'0 0.2
2017-Oct-16 02:30N 38°24' W 008°51'0 0.2
2017-Oct-16 02:01N 38°24' W 008°51'0 0.2
2017-Oct-16 01:29N 38°24' W 008°51'0 0.1
2017-Oct-16 01:01N 38°24' W 008°50'1 1.2
2017-Oct-16 00:28N 38°23' W 008°50'1 1.8
2017-Oct-16 00:01N 38°22' W 008°50'1 2.1
2017-Oct-15 23:30N 38°23' W 008°51'3 6.2
2017-Oct-15 23:00N 38°25' W 008°54'3 5.2
2017-Oct-15 22:31N 38°26' W 008°57'2 4.8
2017-Oct-15 22:00N 38°29' W 008°57'3 5.9
2017-Oct-15 21:30N 38°31' W 008°54'  
2017-Oct-13 16:05N 38°31' W 008°54'0 0.0
2017-Oct-13 15:48N 38°31' W 008°54'0 0.0
2017-Oct-13 15:27N 38°31' W 008°54'0 0.1
2017-Oct-13 13:01N 38°31' W 008°54'0 7.2
2017-Oct-13 13:00N 38°31' W 008°54'3 6.4
2017-Oct-13 12:30N 38°29' W 008°57'3 6.2
2017-Oct-13 12:01N 38°27' W 008°60'4 7.2
2017-Oct-13 11:30N 38°26' W 009°04'2 3.8
2017-Oct-13 11:00N 38°26' W 009°07'0 0.0
2017-Oct-13 10:30N 38°26' W 009°07'0 0.0
2017-Oct-13 09:57N 38°26' W 009°07'0 0.0
2017-Oct-13 09:30N 38°26' W 009°07'0 0.0
2017-Oct-13 09:00N 38°26' W 009°07'0 0.0
2017-Oct-13 08:29N 38°26' W 009°07'0 0.0
2017-Oct-13 07:58N 38°26' W 009°07'0 0.0
2017-Oct-13 07:30N 38°26' W 009°07'0 0.0
2017-Oct-13 06:58N 38°26' W 009°07'0 0.0
2017-Oct-13 06:30N 38°26' W 009°07'3 5.2
2017-Oct-13 06:01N 38°25' W 009°04'4 8.0
2017-Oct-13 05:31N 38°23' W 008°59'4 7.7
2017-Oct-13 05:00N 38°21' W 008°55'4 7.8
2017-Oct-13 04:30N 38°18' W 008°52'4 7.6
2017-Oct-13 04:01N 38°15' W 008°49'1 1.3
2017-Oct-13 03:30N 38°15' W 008°48'0 0.2
2017-Oct-13 02:53N 38°15' W 008°48'0 0.3
2017-Oct-13 02:30N 38°15' W 008°48'0 0.3
2017-Oct-13 02:01N 38°15' W 008°48'0 0.2
2017-Oct-13 01:29N 38°15' W 008°48'0 0.2
2017-Oct-13 01:01N 38°15' W 008°48'1 1.3
2017-Oct-13 00:30N 38°16' W 008°48'1 1.6
2017-Oct-13 00:00N 38°16' W 008°49'10 6.1
2017-Oct-12 22:17N 38°25' W 008°56'2 6.9
2017-Oct-12 22:01N 38°26' W 008°58'6 1.5
2017-Oct-12 18:06N 38°31' W 008°54'0 0.0
2017-Oct-12 17:38N 38°31' W 008°54'0 0.0
2017-Oct-12 17:30N 38°31' W 008°54'0 0.0
2017-Oct-12 17:00N 38°31' W 008°54'0 0.0
2017-Oct-12 16:30N 38°31' W 008°54'0 0.0
2017-Oct-12 16:01N 38°31' W 008°54'0 0.0
2017-Oct-12 15:31N 38°31' W 008°54'0 0.0
2017-Oct-12 15:00N 38°31' W 008°54'3 1.2
2017-Oct-12 12:48N 38°29' W 008°56'2 6.8
2017-Oct-12 12:30N 38°28' W 008°58'4 7.2
2017-Oct-12 12:00N 38°26' W 009°02'4 7.3
2017-Oct-12 11:31N 38°26' W 009°07'0 0.2
2017-Oct-12 10:59N 38°26' W 009°07'0 0.0
2017-Oct-12 10:27N 38°26' W 009°07'0 0.0
2017-Oct-12 09:52N 38°26' W 009°07'0 0.0
2017-Oct-12 09:26N 38°26' W 009°07'0 0.0
2017-Oct-12 08:52N 38°26' W 009°07'3 6.9
2017-Oct-12 08:30N 38°25' W 009°04'4 8.1
2017-Oct-12 08:00N 38°23' W 008°60'4 8.3
2017-Oct-12 07:31N 38°21' W 008°55'4 8.2
2017-Oct-12 07:00N 38°18' W 008°52'4 8.3
2017-Oct-12 06:31N 38°14' W 008°50'2 5.0
2017-Oct-12 06:00N 38°12' W 008°49'0 0.4
2017-Oct-12 05:30N 38°11' W 008°49'0 0.2
2017-Oct-12 05:00N 38°11' W 008°49'0 0.0
2017-Oct-12 04:30N 38°11' W 008°49'0 0.2
2017-Oct-12 04:00N 38°11' W 008°49'1 2.9
2017-Oct-12 03:31N 38°13' W 008°48'2 4.4
2017-Oct-12 03:01N 38°15' W 008°48'5 6.2
2017-Oct-12 02:15N 38°19' W 008°50'1 3.1
2017-Oct-12 02:00N 38°20' W 008°50'0 0.0
2017-Oct-11 22:39N 38°20' W 008°50'0 1.1
2017-Oct-11 22:30N 38°20' W 008°50'2 4.5
2017-Oct-11 22:00N 38°18' W 008°49'0 0.7
2017-Oct-11 21:30N 38°17' W 008°49'1 2.6
2017-Oct-11 21:00N 38°19' W 008°50'0 0.3
2017-Oct-11 20:30N 38°19' W 008°50'0 0.4
2017-Oct-11 20:00N 38°18' W 008°50'0 0.3
2017-Oct-11 19:30N 38°18' W 008°50'0 0.3
2017-Oct-11 19:00N 38°18' W 008°50'1 1.9
2017-Oct-11 18:30N 38°19' W 008°51'7 6.1
2017-Oct-11 17:23N 38°24' W 008°55'3 7.1
2017-Oct-11 17:00N 38°27' W 008°57'5 0.1
2017-Oct-10 02:42N 38°31' W 008°54'1 3.1
2017-Oct-10 02:30N 38°31' W 008°54'4 7.9
2017-Oct-10 02:00N 38°27' W 008°57'1 2.0
2017-Oct-10 01:30N 38°26' W 008°56'0 0.0
2017-Oct-10 01:00N 38°26' W 008°56'0 0.3
2017-Oct-10 00:30N 38°26' W 008°56'0 0.4
2017-Oct-10 00:00N 38°26' W 008°56'0 0.3
2017-Oct-09 23:30N 38°26' W 008°56'0 0.3
2017-Oct-09 23:00N 38°26' W 008°56'0 0.3
2017-Oct-09 22:30N 38°26' W 008°56'0 0.5
2017-Oct-09 22:00N 38°26' W 008°55'1 1.3
2017-Oct-09 21:30N 38°26' W 008°54'1 3.0
2017-Oct-09 21:00N 38°26' W 008°56'2 4.9
2017-Oct-09 20:30N 38°29' W 008°56'3 6.4
2017-Oct-09 20:00N 38°31' W 008°54'0 0.0
2017-Oct-09 11:27N 38°31' W 008°54'1 3.0
2017-Oct-09 11:00N 38°30' W 008°55'3 7.0
2017-Oct-09 10:30N 38°27' W 008°58'4 7.2
2017-Oct-09 10:00N 38°26' W 009°02'4 7.6
2017-Oct-09 09:30N 38°25' W 009°07'4 7.3
2017-Oct-09 09:00N 38°24' W 009°11'3 5.7
2017-Oct-09 08:30N 38°26' W 009°14'3 5.9
2017-Oct-09 08:00N 38°29' W 009°14'0 0.1
2017-Oct-09 07:30N 38°29' W 009°14'0 0.2
2017-Oct-09 07:00N 38°29' W 009°14'2 3.7
2017-Oct-09 06:30N 38°31' W 009°14'2 4.1
2017-Oct-09 06:00N 38°33' W 009°14'0 0.3
2017-Oct-09 05:30N 38°33' W 009°13'0 0.2
2017-Oct-09 05:00N 38°33' W 009°13'0 0.1
2017-Oct-09 04:30N 38°33' W 009°14'0 0.1
2017-Oct-09 04:00N 38°33' W 009°14'0 0.1
2017-Oct-09 03:30N 38°33' W 009°14'0 0.0
2017-Oct-09 03:00N 38°33' W 009°14'0 0.0
2017-Oct-09 02:30N 38°33' W 009°14'0 0.0
2017-Oct-09 02:00N 38°33' W 009°14'0 0.0
2017-Oct-09 01:30N 38°33' W 009°14'0 0.1
2017-Oct-09 01:00N 38°33' W 009°14'2 3.8
2017-Oct-09 00:30N 38°31' W 009°12'2 4.4
2017-Oct-09 00:00N 38°29' W 009°13'3 6.5
2017-Oct-08 23:30N 38°26' W 009°14'3 6.2
2017-Oct-08 23:00N 38°24' W 009°11'4 8.2
2017-Oct-08 22:30N 38°25' W 009°06'4 8.2
2017-Oct-08 22:00N 38°26' W 009°01'4 8.2
2017-Oct-08 21:30N 38°26' W 008°56'2 4.5
2017-Oct-08 21:00N 38°28' W 008°58'5 9.3
2017-Oct-08 20:30N 38°31' W 008°54'0 0.3
2017-Oct-08 20:00N 38°31' W 008°54'  

Dump ship's entire track history